createdAt,value
2023-02-11T11:43:23.026Z,5.07
2023-02-11T11:46:00.010Z,5.20
2023-02-11T11:48:33.019Z,4.68
2023-02-11T11:51:04.085Z,4.70
2023-02-11T11:53:37.912Z,4.97
2023-02-11T11:58:36.395Z,5.63
2023-02-11T12:01:43.375Z,4.32
2023-02-11T12:04:42.093Z,4.40
2023-02-11T12:07:38.943Z,6.65
2023-02-11T12:10:16.636Z,6.57
2023-02-11T12:13:20.318Z,5.90
2023-02-11T12:16:02.081Z,4.82
2023-02-11T12:18:49.681Z,5.30
2023-02-11T12:21:29.441Z,5.35
2023-02-11T12:24:02.556Z,5.38
2023-02-11T12:26:56.424Z,5.70
2023-02-11T12:29:40.560Z,4.65
2023-02-11T12:32:21.972Z,5.75
2023-02-11T12:35:22.777Z,5.10
2023-02-11T12:38:15.929Z,6.05
2023-02-11T12:40:51.123Z,5.32
2023-02-11T12:43:18.140Z,5.78
2023-02-11T12:46:21.997Z,5.85
2023-02-11T12:49:10.150Z,5.28
2023-02-11T12:51:54.221Z,7.55
2023-02-11T12:54:30.203Z,7.22
2023-02-11T12:57:03.247Z,7.32
2023-02-11T12:59:34.865Z,7.50
2023-02-11T13:02:11.813Z,6.75
2023-02-11T13:04:47.036Z,6.50
2023-02-11T13:07:29.833Z,6.47
2023-02-11T13:10:25.270Z,6.60
2023-02-11T13:13:12.931Z,7.97
2023-02-11T13:15:46.067Z,7.47
2023-02-11T13:18:39.054Z,6.63
2023-02-11T13:21:20.585Z,7.70
2023-02-11T13:23:59.944Z,7.47
2023-02-11T13:26:36.658Z,6.82
2023-02-11T13:29:05.873Z,5.70
2023-02-11T13:31:38.274Z,8.73
2023-02-11T13:34:23.613Z,6.75
2023-02-11T13:36:59.667Z,6.93
2023-02-11T13:39:31.171Z,8.82
2023-02-11T13:42:04.403Z,8.30
2023-02-11T13:44:34.841Z,7.15
2023-02-11T13:49:40.875Z,7.40
2023-02-11T13:52:18.770Z,11.52
2023-02-11T13:54:52.901Z,36.10
2023-02-11T13:57:28.217Z,91.40
2023-02-11T13:59:59.135Z,156.15
2023-02-11T14:02:51.358Z,176.60
2023-02-11T14:05:44.797Z,218.57
2023-02-11T14:08:39.511Z,210.48
2023-02-11T14:11:14.419Z,232.18
2023-02-11T14:13:49.361Z,223.05
2023-02-11T14:16:36.457Z,217.75
2023-02-11T14:19:14.222Z,197.25
2023-02-11T14:21:49.377Z,201.25
2023-02-11T14:24:18.516Z,186.60
2023-02-11T14:27:05.186Z,203.02
2023-02-11T14:29:46.106Z,175.82
2023-02-11T14:32:32.028Z,159.18
2023-02-11T14:35:02.570Z,153.88
2023-02-11T14:38:28.879Z,153.18
2023-02-11T14:41:05.951Z,141.88
2023-02-11T14:43:40.543Z,140.65
2023-02-11T14:46:10.860Z,148.00
2023-02-11T14:48:43.228Z,148.70
2023-02-11T14:51:32.897Z,145.13
2023-02-11T14:54:18.797Z,135.77
2023-02-11T14:59:25.462Z,128.88
2023-02-11T15:01:58.622Z,135.32
2023-02-11T15:04:31.727Z,137.10
2023-02-11T15:07:08.416Z,127.85
2023-02-11T15:09:44.528Z,125.43
2023-02-11T15:12:31.480Z,119.97
2023-02-11T15:15:02.804Z,127.93
2023-02-11T15:17:32.404Z,116.78
2023-02-11T15:20:03.797Z,118.13
2023-02-11T15:22:36.894Z,108.72
2023-02-11T15:25:17.324Z,110.65
2023-02-11T15:27:52.445Z,118.95
2023-02-11T15:30:21.818Z,107.35
2023-02-11T15:33:00.119Z,116.88
2023-02-11T15:35:36.820Z,119.25
2023-02-11T15:38:15.575Z,116.78
2023-02-11T15:40:57.078Z,105.78
2023-02-11T15:43:39.894Z,105.13
2023-02-11T15:46:06.791Z,98.50
2023-02-11T15:48:35.804Z,105.32
2023-02-11T15:51:11.269Z,107.70
2023-02-11T15:53:45.601Z,105.88
2023-02-11T15:56:25.348Z,99.80
2023-02-11T15:58:56.998Z,99.95
2023-02-11T16:01:40.195Z,100.05
2023-02-11T16:04:14.870Z,97.82
2023-02-11T16:06:47.716Z,103.10
2023-02-11T16:09:17.525Z,50.38
2023-02-11T16:11:49.997Z,37.75
2023-02-11T16:14:24.656Z,38.83
2023-02-11T16:17:04.532Z,36.15
2023-02-11T16:19:35.983Z,47.90
2023-02-11T16:22:11.313Z,40.95
2023-02-11T16:24:39.508Z,39.30
2023-02-11T16:27:25.792Z,33.47
2023-02-11T16:29:52.750Z,31.13
2023-02-11T16:32:23.486Z,34.15
2023-02-11T16:34:53.475Z,27.25
2023-02-11T16:37:24.795Z,31.25
2023-02-11T16:39:58.198Z,30.60
2023-02-11T16:42:27.276Z,30.85
2023-02-11T16:44:54.034Z,54.85
2023-02-11T16:47:26.490Z,48.55
2023-02-11T16:49:54.205Z,33.13
2023-02-11T16:52:22.009Z,34.25
2023-02-11T16:54:51.692Z,37.30
2023-02-11T16:57:19.721Z,35.47
2023-02-11T16:59:47.084Z,39.65
2023-02-11T17:02:24.121Z,37.38
2023-02-11T17:04:55.812Z,38.60
2023-02-11T17:07:22.522Z,32.72
2023-02-11T17:09:52.374Z,32.33
2023-02-11T17:12:21.643Z,33.85
2023-02-11T17:14:50.635Z,32.40
2023-02-11T17:17:19.640Z,34.38
2023-02-11T17:19:54.175Z,29.60
2023-02-11T17:22:25.646Z,33.45
2023-02-11T17:25:01.111Z,30.90
2023-02-11T17:27:34.489Z,26.25
2023-02-11T17:30:06.255Z,27.55
2023-02-11T17:32:35.726Z,30.42
2023-02-11T17:35:05.782Z,28.73
2023-02-11T17:37:36.930Z,29.50
2023-02-11T17:40:03.812Z,26.00
2023-02-11T17:42:35.252Z,28.83
2023-02-11T17:45:07.409Z,25.17
2023-02-11T17:47:34.319Z,26.08
2023-02-11T17:50:01.469Z,26.60
2023-02-11T17:52:30.602Z,23.35
2023-02-11T17:54:58.193Z,22.83
2023-02-11T17:57:30.150Z,27.50
2023-02-11T17:59:57.312Z,26.98
2023-02-11T18:02:26.350Z,25.95
2023-02-11T18:04:58.894Z,28.52
2023-02-11T18:07:26.624Z,24.98
2023-02-11T18:09:55.709Z,25.75
2023-02-11T18:12:26.332Z,22.67
2023-02-11T18:14:59.791Z,27.13
2023-02-11T18:17:29.309Z,20.52
2023-02-11T18:19:59.586Z,23.83
2023-02-11T18:22:36.581Z,19.45
2023-02-11T18:25:03.514Z,21.77
2023-02-11T18:27:30.257Z,24.38
2023-02-11T18:29:56.929Z,24.27
2023-02-11T18:32:27.986Z,22.73
2023-02-11T18:34:54.714Z,25.48
2023-02-11T18:37:23.857Z,20.27
2023-02-11T18:39:52.867Z,20.17
2023-02-11T18:42:25.118Z,23.17
2023-02-11T18:44:54.917Z,20.08
2023-02-11T18:47:23.867Z,20.77
2023-02-11T18:49:50.682Z,20.95
2023-02-11T18:52:21.837Z,22.90
2023-02-11T18:54:55.926Z,20.90
2023-02-11T18:57:27.721Z,22.10
2023-02-11T18:59:54.493Z,19.80
2023-02-11T19:02:21.323Z,20.08
2023-02-11T19:04:51.379Z,17.85
2023-02-11T19:07:18.145Z,20.05
2023-02-11T19:09:49.626Z,19.08
2023-02-11T19:12:21.286Z,20.27
2023-02-11T19:14:55.276Z,19.35
2023-02-11T19:17:26.697Z,17.77
2023-02-11T19:19:58.193Z,20.63
2023-02-11T19:22:27.005Z,16.33
2023-02-11T19:24:53.898Z,17.80
2023-02-11T19:27:20.685Z,17.10
2023-02-11T19:29:52.320Z,17.92
2023-02-11T19:32:21.607Z,16.98
2023-02-11T19:34:48.505Z,19.13
2023-02-11T19:37:22.325Z,17.25
2023-02-11T19:39:53.764Z,19.48
2023-02-11T19:42:27.787Z,17.42
2023-02-11T19:44:54.505Z,17.02
2023-02-11T19:47:27.630Z,18.08
2023-02-11T19:49:55.223Z,17.58
2023-02-11T19:52:29.220Z,18.92
2023-02-11T19:54:58.857Z,16.80
2023-02-11T19:57:29.982Z,16.67
2023-02-11T20:00:01.624Z,13.15
2023-02-11T20:02:31.310Z,16.92
2023-02-11T20:05:04.012Z,14.18
2023-02-11T20:07:35.552Z,15.15
2023-02-11T20:10:07.663Z,17.83
2023-02-11T20:12:39.238Z,15.52
2023-02-11T20:15:13.828Z,15.05
2023-02-11T20:17:45.128Z,15.00
2023-02-11T20:20:13.013Z,12.32
2023-02-11T20:22:39.735Z,14.15
2023-02-11T20:25:06.946Z,14.05
2023-02-11T20:27:33.768Z,13.13
2023-02-11T20:30:03.492Z,12.48
2023-02-11T20:32:32.825Z,15.05
2023-02-11T20:35:02.141Z,16.33
2023-02-11T20:37:33.669Z,13.60
2023-02-11T20:40:03.674Z,14.77
2023-02-11T20:42:32.899Z,13.93
2023-02-11T20:45:02.424Z,14.40
2023-02-11T20:47:31.760Z,10.30
2023-02-11T20:49:58.480Z,12.82
2023-02-11T20:52:29.782Z,12.40
2023-02-11T20:54:59.722Z,13.90
2023-02-11T20:57:35.148Z,13.48
2023-02-11T21:00:05.275Z,13.20
2023-02-11T21:02:34.364Z,11.77
2023-02-11T21:05:03.570Z,11.88
2023-02-11T21:07:31.454Z,12.75
2023-02-11T21:09:58.296Z,11.43
2023-02-11T21:12:25.146Z,15.88
2023-02-11T21:14:51.911Z,12.65
2023-02-11T21:17:18.942Z,13.35
2023-02-11T21:19:48.327Z,12.38
2023-02-11T21:22:17.516Z,11.43
2023-02-11T21:24:46.537Z,12.93
2023-02-11T21:27:13.381Z,11.90
2023-02-11T21:29:52.712Z,12.18
2023-02-11T21:32:22.973Z,11.45
2023-02-11T21:34:54.463Z,12.02
2023-02-11T21:37:23.320Z,11.13
2023-02-11T21:39:50.132Z,15.25
2023-02-11T21:42:21.755Z,13.52
2023-02-11T21:44:48.480Z,12.43
2023-02-11T21:47:15.181Z,11.65
2023-02-11T21:49:41.904Z,12.32
2023-02-11T21:52:13.415Z,12.75
2023-02-11T21:54:40.232Z,11.95
2023-02-11T21:57:09.196Z,11.52
2023-02-11T21:59:43.292Z,13.20
2023-02-11T22:02:16.352Z,12.98
2023-02-11T22:04:43.293Z,9.88
2023-02-11T22:07:10.037Z,9.50
2023-02-11T22:09:43.801Z,9.13
2023-02-11T22:12:12.698Z,11.02
2023-02-11T22:14:39.412Z,11.77
2023-02-11T22:17:06.146Z,7.90
2023-02-11T22:19:40.260Z,11.20
2023-02-11T22:22:08.157Z,10.68
2023-02-11T22:24:36.160Z,10.57
2023-02-11T22:27:07.437Z,10.85
2023-02-11T22:29:42.138Z,9.82
2023-02-11T22:32:14.197Z,10.88
2023-02-11T22:34:43.527Z,10.52
2023-02-11T22:37:12.420Z,11.70
2023-02-11T22:39:43.928Z,10.23
2023-02-11T22:42:12.949Z,9.38
2023-02-11T22:44:39.602Z,9.45
2023-02-11T22:47:13.644Z,7.65
2023-02-11T22:49:42.715Z,12.35
2023-02-11T22:52:12.106Z,10.23
2023-02-11T22:54:41.507Z,9.70
2023-02-11T22:57:08.472Z,9.25
2023-02-11T22:59:35.174Z,8.48
2023-02-11T23:02:04.522Z,9.32
2023-02-11T23:04:31.290Z,10.13
2023-02-11T23:06:57.972Z,8.60
2023-02-11T23:09:26.948Z,9.02
2023-02-11T23:11:54.499Z,11.30
2023-02-11T23:14:24.360Z,9.15
2023-02-11T23:16:55.869Z,10.85
2023-02-11T23:19:27.449Z,9.45
2023-02-11T23:21:56.466Z,8.57
2023-02-11T23:24:25.657Z,8.93
2023-02-11T23:26:57.000Z,9.40
2023-02-11T23:29:26.292Z,8.70
2023-02-11T23:31:58.952Z,9.45
2023-02-11T23:34:25.822Z,8.35
2023-02-11T23:36:55.914Z,9.20
2023-02-11T23:39:25.344Z,9.95
2023-02-11T23:41:58.898Z,11.52
2023-02-11T23:44:26.674Z,8.50
2023-02-11T23:46:55.654Z,9.57
2023-02-11T23:49:27.136Z,9.60
2023-02-11T23:51:53.874Z,10.25
2023-02-11T23:54:22.846Z,8.65
2023-02-11T23:56:56.701Z,8.88
2023-02-11T23:59:23.492Z,7.70
